TVF4380 LFPO-LOWW
Flight info
| Callsign | TVF4380 |
|---|---|
| Flight time | 1h 27m |
| Altitude | 35000 |
| Route | BUBLI DCT LUVAL DCT BEGAR DCT TRA DCT GAMSA DCT TULSI DCT INPUL/N0444F330 DCT NEMAL NEMAL2W |
| Aircraft | A20N/M-SDE2E3FGHIRWXY/LB1 |
Departure
| Time | 2026-04-21 06:19 |
|---|---|
| Airport | Paris-Orly Airport (LFPO) |
Arrival
| Time | 2026-04-21 07:46 |
|---|---|
| Airport | Vienna International Airport (LOWW) |
| Time | Latitude | Longitude | Altitude | Speed | Heading |
|---|---|---|---|---|---|
| 2026-04-21 05:48 | 48.72654 | 2.35766 | 299 ft | 0 kts | 122° |
| 2026-04-21 06:09 | 48.72660 | 2.35752 | 299 ft | 3 kts | 122° |
| 2026-04-21 06:09 | 48.72670 | 2.35728 | 300 ft | 3 kts | 122° |
| 2026-04-21 06:09 | 48.72680 | 2.35704 | 299 ft | 3 kts | 122° |
| 2026-04-21 06:10 | 48.72681 | 2.35701 | 301 ft | 0 kts | 122° |
| 2026-04-21 06:13 | 48.72678 | 2.35702 | 300 ft | 1 kts | 154° |
| 2026-04-21 06:13 | 48.72645 | 2.35702 | 298 ft | 8 kts | 174° |
| 2026-04-21 06:13 | 48.72592 | 2.35681 | 299 ft | 8 kts | 190° |
| 2026-04-21 06:13 | 48.72538 | 2.35691 | 297 ft | 11 kts | 165° |
| 2026-04-21 06:14 | 48.72469 | 2.35661 | 298 ft | 11 kts | 220° |
| 2026-04-21 06:14 | 48.72409 | 2.35626 | 296 ft | 9 kts | 178° |
| 2026-04-21 06:14 | 48.72349 | 2.35636 | 296 ft | 8 kts | 187° |
| 2026-04-21 06:14 | 48.72295 | 2.35615 | 299 ft | 8 kts | 194° |
| 2026-04-21 06:15 | 48.72243 | 2.35603 | 296 ft | 7 kts | 182° |
| 2026-04-21 06:15 | 48.72192 | 2.35613 | 298 ft | 7 kts | 167° |
| 2026-04-21 06:15 | 48.72144 | 2.35632 | 296 ft | 7 kts | 165° |
| 2026-04-21 06:15 | 48.72097 | 2.35657 | 300 ft | 7 kts | 153° |
| 2026-04-21 06:16 | 48.72057 | 2.35698 | 298 ft | 7 kts | 136° |
| 2026-04-21 06:16 | 48.72036 | 2.35741 | 296 ft | 0 kts | 123° |
| 2026-04-21 06:17 | 48.72017 | 2.35786 | 300 ft | 11 kts | 122° |
| 2026-04-21 06:17 | 48.71978 | 2.35886 | 297 ft | 11 kts | 119° |
| 2026-04-21 06:18 | 48.71964 | 2.35989 | 296 ft | 10 kts | 78° |
| 2026-04-21 06:18 | 48.72018 | 2.36282 | 301 ft | 64 kts | 73° |
| 2026-04-21 06:18 | 48.72214 | 2.37343 | 298 ft | 145 kts | 73° |
| 2026-04-21 06:18 | 48.72515 | 2.38990 | 839 ft | 163 kts | 75° |
| 2026-04-21 06:19 | 48.72808 | 2.40662 | 1845 ft | 165 kts | 74° |
| 2026-04-21 06:19 | 48.73134 | 2.42402 | 2388 ft | 184 kts | 73° |
| 2026-04-21 06:19 | 48.73523 | 2.44472 | 2659 ft | 220 kts | 74° |
| 2026-04-21 06:19 | 48.73928 | 2.46786 | 3321 ft | 236 kts | 78° |
| 2026-04-21 06:20 | 48.74125 | 2.49285 | 4243 ft | 242 kts | 85° |
| 2026-04-21 06:20 | 48.74218 | 2.51863 | 5132 ft | 248 kts | 86° |
| 2026-04-21 06:20 | 48.74313 | 2.54511 | 5992 ft | 254 kts | 83° |
| 2026-04-21 06:20 | 48.74492 | 2.57220 | 6836 ft | 261 kts | 81° |
| 2026-04-21 06:21 | 48.74704 | 2.59988 | 7672 ft | 267 kts | 81° |
| 2026-04-21 06:21 | 48.74928 | 2.62812 | 8556 ft | 273 kts | 80° |
| 2026-04-21 06:21 | 48.75158 | 2.65700 | 9438 ft | 279 kts | 80° |
| 2026-04-21 06:21 | 48.75389 | 2.68613 | 10307 ft | 285 kts | 80° |
| 2026-04-21 06:22 | 48.75634 | 2.71739 | 10790 ft | 307 kts | 80° |
| 2026-04-21 06:22 | 48.75893 | 2.75039 | 11126 ft | 330 kts | 80° |
| 2026-04-21 06:22 | 48.76166 | 2.78582 | 11751 ft | 343 kts | 80° |
| 2026-04-21 06:22 | 48.76443 | 2.82218 | 12527 ft | 352 kts | 80° |
| 2026-04-21 06:23 | 48.76725 | 2.85942 | 13345 ft | 359 kts | 80° |
| 2026-04-21 06:23 | 48.77012 | 2.89742 | 14122 ft | 367 kts | 79° |
| 2026-04-21 06:23 | 48.77305 | 2.93626 | 14839 ft | 374 kts | 79° |
| 2026-04-21 06:23 | 48.77620 | 2.97574 | 15565 ft | 379 kts | 78° |
| 2026-04-21 06:24 | 48.78056 | 3.01555 | 16288 ft | 385 kts | 76° |
| 2026-04-21 06:24 | 48.78536 | 3.05569 | 17031 ft | 391 kts | 76° |
| 2026-04-21 06:24 | 48.79030 | 3.09656 | 17700 ft | 398 kts | 75° |
| 2026-04-21 06:24 | 48.79530 | 3.13820 | 18378 ft | 404 kts | 75° |
| 2026-04-21 06:25 | 48.80028 | 3.17996 | 18975 ft | 410 kts | 75° |
| 2026-04-21 06:25 | 48.80534 | 3.22273 | 19596 ft | 414 kts | 75° |
| 2026-04-21 06:25 | 48.81046 | 3.26614 | 20224 ft | 419 kts | 75° |
| 2026-04-21 06:25 | 48.81561 | 3.30990 | 20851 ft | 424 kts | 75° |
| 2026-04-21 06:26 | 48.82023 | 3.35441 | 21474 ft | 431 kts | 79° |
| 2026-04-21 06:26 | 48.82091 | 3.40030 | 22045 ft | 440 kts | 89° |
| 2026-04-21 06:26 | 48.81855 | 3.44688 | 22628 ft | 446 kts | 92° |
| 2026-04-21 06:26 | 48.81550 | 3.49397 | 23186 ft | 451 kts | 92° |
| 2026-04-21 06:27 | 48.81340 | 3.52552 | 23551 ft | 455 kts | 92° |
| 2026-04-21 06:27 | 48.81022 | 3.57358 | 23979 ft | 460 kts | 92° |
| 2026-04-21 06:27 | 48.80702 | 3.62201 | 24446 ft | 464 kts | 92° |
| 2026-04-21 06:27 | 48.80275 | 3.68694 | 25049 ft | 468 kts | 92° |
| 2026-04-21 06:28 | 48.79949 | 3.73633 | 25483 ft | 472 kts | 92° |
| 2026-04-21 06:28 | 48.79727 | 3.76988 | 25783 ft | 474 kts | 92° |
| 2026-04-21 06:28 | 48.79367 | 3.81993 | 26207 ft | 479 kts | 95° |
| 2026-04-21 06:28 | 48.78647 | 3.86891 | 26596 ft | 486 kts | 106° |
| 2026-04-21 06:29 | 48.77330 | 3.91631 | 27005 ft | 491 kts | 115° |
| 2026-04-21 06:29 | 48.75740 | 3.96243 | 27395 ft | 495 kts | 118° |
| 2026-04-21 06:29 | 48.74030 | 4.00789 | 27784 ft | 498 kts | 120° |
| 2026-04-21 06:29 | 48.72260 | 4.05329 | 28162 ft | 502 kts | 121° |
| 2026-04-21 06:30 | 48.70470 | 4.09877 | 28548 ft | 505 kts | 121° |
| 2026-04-21 06:30 | 48.68669 | 4.14475 | 28911 ft | 508 kts | 120° |
| 2026-04-21 06:30 | 48.66869 | 4.19106 | 29269 ft | 512 kts | 120° |
| 2026-04-21 06:30 | 48.65072 | 4.23761 | 29619 ft | 515 kts | 120° |
| 2026-04-21 06:31 | 48.63262 | 4.28467 | 29982 ft | 518 kts | 120° |
| 2026-04-21 06:31 | 48.61451 | 4.33185 | 30330 ft | 521 kts | 120° |
| 2026-04-21 06:31 | 48.59631 | 4.37921 | 30622 ft | 523 kts | 120° |
| 2026-04-21 06:31 | 48.57802 | 4.42674 | 31004 ft | 523 kts | 120° |
| 2026-04-21 06:32 | 48.55970 | 4.47425 | 31442 ft | 521 kts | 120° |
| 2026-04-21 06:32 | 48.54155 | 4.52123 | 32039 ft | 515 kts | 120° |
| 2026-04-21 06:32 | 48.52354 | 4.56775 | 32526 ft | 512 kts | 120° |
| 2026-04-21 06:32 | 48.50580 | 4.61347 | 32895 ft | 512 kts | 120° |
| 2026-04-21 06:33 | 48.48777 | 4.65987 | 33260 ft | 511 kts | 120° |
| 2026-04-21 06:33 | 48.46978 | 4.70605 | 33626 ft | 511 kts | 120° |
| 2026-04-21 06:33 | 48.45176 | 4.75225 | 34011 ft | 510 kts | 120° |
| 2026-04-21 06:33 | 48.43376 | 4.79830 | 34319 ft | 510 kts | 120° |
| 2026-04-21 06:34 | 48.41576 | 4.84429 | 34606 ft | 509 kts | 120° |
| 2026-04-21 06:34 | 48.39785 | 4.88997 | 34957 ft | 507 kts | 120° |
| 2026-04-21 06:34 | 48.37984 | 4.93583 | 35119 ft | 509 kts | 120° |
| 2026-04-21 06:35 | 48.34384 | 5.02725 | 35136 ft | 507 kts | 120° |
| 2026-04-21 06:35 | 48.30803 | 5.11871 | 35130 ft | 506 kts | 117° |
| 2026-04-21 06:35 | 48.29425 | 5.16709 | 35142 ft | 503 kts | 105° |
| 2026-04-21 06:36 | 48.28466 | 5.21746 | 35133 ft | 502 kts | 102° |
| 2026-04-21 06:36 | 48.26848 | 5.31955 | 35126 ft | 502 kts | 100° |
| 2026-04-21 06:37 | 48.25375 | 5.42126 | 35127 ft | 502 kts | 99° |
| 2026-04-21 06:37 | 48.23878 | 5.52359 | 35121 ft | 502 kts | 100° |
| 2026-04-21 06:38 | 48.22347 | 5.62580 | 35129 ft | 502 kts | 100° |
| 2026-04-21 06:38 | 48.20789 | 5.72832 | 35121 ft | 503 kts | 100° |
| 2026-04-21 06:39 | 48.19222 | 5.83059 | 35123 ft | 503 kts | 100° |
| 2026-04-21 06:39 | 48.17647 | 5.93281 | 35124 ft | 503 kts | 100° |
| 2026-04-21 06:40 | 48.16066 | 6.03487 | 35126 ft | 503 kts | 101° |
| 2026-04-21 06:40 | 48.14480 | 6.13658 | 35122 ft | 505 kts | 101° |
| 2026-04-21 06:41 | 48.12873 | 6.23896 | 35118 ft | 505 kts | 101° |
| 2026-04-21 06:41 | 48.11257 | 6.34129 | 35111 ft | 505 kts | 101° |
| 2026-04-21 06:42 | 48.09634 | 6.44346 | 35114 ft | 505 kts | 101° |
| 2026-04-21 06:42 | 48.07998 | 6.54583 | 35105 ft | 507 kts | 101° |
| 2026-04-21 06:43 | 48.06347 | 6.64843 | 35103 ft | 507 kts | 101° |
| 2026-04-21 06:43 | 48.04689 | 6.75090 | 35102 ft | 507 kts | 101° |
| 2026-04-21 06:44 | 48.03031 | 6.85266 | 35109 ft | 507 kts | 101° |
| 2026-04-21 06:44 | 48.01351 | 6.95523 | 35084 ft | 508 kts | 101° |
| 2026-04-21 06:45 | 47.99663 | 7.05767 | 35121 ft | 508 kts | 101° |
| 2026-04-21 06:45 | 47.97962 | 7.16018 | 35122 ft | 507 kts | 101° |
| 2026-04-21 06:46 | 47.96258 | 7.26231 | 35128 ft | 507 kts | 101° |
| 2026-04-21 06:46 | 47.94541 | 7.36463 | 35126 ft | 508 kts | 101° |
| 2026-04-21 06:47 | 47.92824 | 7.46635 | 35131 ft | 508 kts | 101° |
| 2026-04-21 06:47 | 47.91065 | 7.56843 | 35125 ft | 509 kts | 105° |
| 2026-04-21 06:48 | 47.88711 | 7.66819 | 35128 ft | 510 kts | 108° |
| 2026-04-21 06:48 | 47.86214 | 7.76756 | 35115 ft | 511 kts | 109° |
| 2026-04-21 06:49 | 47.83684 | 7.86637 | 35114 ft | 511 kts | 109° |
| 2026-04-21 06:49 | 47.81146 | 7.96529 | 35111 ft | 511 kts | 109° |
| 2026-04-21 06:50 | 47.78608 | 8.06414 | 35110 ft | 511 kts | 109° |
| 2026-04-21 06:50 | 47.76074 | 8.16256 | 35108 ft | 511 kts | 109° |
| 2026-04-21 06:51 | 47.73523 | 8.26126 | 35110 ft | 511 kts | 109° |
| 2026-04-21 06:51 | 47.70959 | 8.35998 | 35109 ft | 511 kts | 109° |
| 2026-04-21 06:52 | 47.68421 | 8.45870 | 35116 ft | 510 kts | 108° |
| 2026-04-21 06:52 | 47.66131 | 8.55830 | 35118 ft | 510 kts | 107° |
| 2026-04-21 06:53 | 47.63928 | 8.65764 | 35117 ft | 510 kts | 107° |
| 2026-04-21 06:53 | 47.61686 | 8.75751 | 35117 ft | 510 kts | 107° |
| 2026-04-21 06:54 | 47.59414 | 8.85715 | 35103 ft | 510 kts | 107° |
| 2026-04-21 06:54 | 47.57126 | 8.95667 | 35099 ft | 510 kts | 107° |
| 2026-04-21 06:55 | 47.54841 | 9.05552 | 35099 ft | 510 kts | 107° |
| 2026-04-21 06:55 | 47.52542 | 9.15464 | 35100 ft | 510 kts | 107° |
| 2026-04-21 06:56 | 47.50224 | 9.25407 | 35100 ft | 510 kts | 108° |
| 2026-04-21 06:56 | 47.47905 | 9.35316 | 35097 ft | 510 kts | 108° |
| 2026-04-21 06:57 | 47.45572 | 9.45234 | 35103 ft | 510 kts | 108° |
| 2026-04-21 06:57 | 47.43234 | 9.55134 | 35101 ft | 510 kts | 108° |
| 2026-04-21 06:58 | 47.41633 | 9.65203 | 35098 ft | 503 kts | 89° |
| 2026-04-21 06:58 | 47.41755 | 9.70313 | 35108 ft | 496 kts | 77° |
| 2026-04-21 06:58 | 47.42286 | 9.75345 | 35097 ft | 494 kts | 75° |
| 2026-04-21 06:59 | 47.43672 | 9.85277 | 35094 ft | 493 kts | 72° |
| 2026-04-21 06:59 | 47.45174 | 9.95165 | 35091 ft | 493 kts | 72° |
| 2026-04-21 07:00 | 47.46649 | 10.05096 | 35094 ft | 494 kts | 72° |
| 2026-04-21 07:00 | 47.48082 | 10.15037 | 35082 ft | 494 kts | 73° |
| 2026-04-21 07:01 | 47.49487 | 10.24940 | 35086 ft | 494 kts | 73° |
| 2026-04-21 07:01 | 47.51589 | 10.39879 | 35087 ft | 494 kts | 73° |
| 2026-04-21 07:02 | 47.52982 | 10.49843 | 35096 ft | 494 kts | 73° |
| 2026-04-21 07:02 | 47.54364 | 10.59801 | 35093 ft | 493 kts | 74° |
| 2026-04-21 07:03 | 47.55733 | 10.69741 | 35089 ft | 492 kts | 74° |
| 2026-04-21 07:03 | 47.57095 | 10.79682 | 35095 ft | 492 kts | 74° |
| 2026-04-21 07:04 | 47.58446 | 10.89620 | 35091 ft | 492 kts | 74° |
| 2026-04-21 07:04 | 47.59791 | 10.99574 | 35093 ft | 493 kts | 75° |
| 2026-04-21 07:05 | 47.61130 | 11.09560 | 35094 ft | 494 kts | 75° |
| 2026-04-21 07:05 | 47.62453 | 11.19491 | 35100 ft | 494 kts | 75° |
| 2026-04-21 07:06 | 47.63773 | 11.29470 | 35099 ft | 494 kts | 75° |
| 2026-04-21 07:06 | 47.65087 | 11.39479 | 35131 ft | 494 kts | 75° |
| 2026-04-21 07:07 | 47.66390 | 11.49469 | 35109 ft | 492 kts | 75° |
| 2026-04-21 07:07 | 47.67678 | 11.59431 | 35110 ft | 491 kts | 76° |
| 2026-04-21 07:08 | 47.68957 | 11.69378 | 35109 ft | 491 kts | 76° |
| 2026-04-21 07:08 | 47.70234 | 11.79321 | 35114 ft | 491 kts | 75° |
| 2026-04-21 07:09 | 47.71663 | 11.89237 | 35117 ft | 490 kts | 73° |
| 2026-04-21 07:09 | 47.72906 | 11.97440 | 35116 ft | 490 kts | 73° |
| 2026-04-21 07:10 | 47.74393 | 12.07325 | 35118 ft | 490 kts | 74° |
| 2026-04-21 07:10 | 47.75855 | 12.17218 | 35122 ft | 490 kts | 74° |
| 2026-04-21 07:11 | 47.77302 | 12.27132 | 35122 ft | 490 kts | 74° |
| 2026-04-21 07:11 | 47.78739 | 12.37052 | 35120 ft | 488 kts | 74° |
| 2026-04-21 07:12 | 47.80158 | 12.46914 | 35121 ft | 486 kts | 75° |
| 2026-04-21 07:12 | 47.81565 | 12.56747 | 35120 ft | 486 kts | 75° |
| 2026-04-21 07:13 | 47.82965 | 12.66587 | 35120 ft | 486 kts | 75° |
| 2026-04-21 07:13 | 47.84034 | 12.76457 | 35138 ft | 489 kts | 84° |
| 2026-04-21 07:14 | 47.84746 | 12.86557 | 35127 ft | 487 kts | 78° |
| 2026-04-21 07:14 | 47.85824 | 12.96453 | 35129 ft | 487 kts | 77° |
| 2026-04-21 07:15 | 47.86979 | 13.06387 | 35126 ft | 487 kts | 77° |
| 2026-04-21 07:15 | 47.88118 | 13.16327 | 35127 ft | 487 kts | 77° |
| 2026-04-21 07:16 | 47.89230 | 13.26266 | 35136 ft | 486 kts | 78° |
| 2026-04-21 07:16 | 47.90320 | 13.36158 | 35131 ft | 483 kts | 78° |
| 2026-04-21 07:17 | 47.91400 | 13.46032 | 35130 ft | 482 kts | 78° |
| 2026-04-21 07:17 | 47.91715 | 13.56045 | 35004 ft | 485 kts | 87° |
| 2026-04-21 07:18 | 47.91737 | 13.61068 | 34766 ft | 485 kts | 88° |
| 2026-04-21 07:18 | 47.91740 | 13.66118 | 34533 ft | 486 kts | 88° |
| 2026-04-21 07:18 | 47.91726 | 13.71164 | 34306 ft | 487 kts | 88° |
| 2026-04-21 07:18 | 47.91702 | 13.76221 | 34070 ft | 488 kts | 88° |
| 2026-04-21 07:19 | 47.91671 | 13.81284 | 33797 ft | 488 kts | 89° |
| 2026-04-21 07:19 | 47.91637 | 13.86275 | 33529 ft | 488 kts | 89° |
| 2026-04-21 07:19 | 47.91600 | 13.91406 | 33260 ft | 488 kts | 89° |
| 2026-04-21 07:19 | 47.91562 | 13.96392 | 32994 ft | 488 kts | 89° |
| 2026-04-21 07:20 | 47.91522 | 14.01455 | 32734 ft | 488 kts | 89° |
| 2026-04-21 07:20 | 47.91480 | 14.06570 | 32469 ft | 487 kts | 89° |
| 2026-04-21 07:20 | 47.91438 | 14.11558 | 32221 ft | 487 kts | 89° |
| 2026-04-21 07:20 | 47.91392 | 14.16608 | 31966 ft | 487 kts | 89° |
| 2026-04-21 07:21 | 47.91345 | 14.21660 | 31709 ft | 487 kts | 89° |
| 2026-04-21 07:21 | 47.91296 | 14.26702 | 31458 ft | 486 kts | 89° |
| 2026-04-21 07:21 | 47.91244 | 14.31738 | 31208 ft | 484 kts | 89° |
| 2026-04-21 07:21 | 47.91190 | 14.36742 | 30961 ft | 482 kts | 89° |
| 2026-04-21 07:22 | 47.91134 | 14.41720 | 30711 ft | 480 kts | 89° |
| 2026-04-21 07:22 | 47.91076 | 14.46685 | 30469 ft | 477 kts | 89° |
| 2026-04-21 07:22 | 47.91017 | 14.51623 | 30239 ft | 475 kts | 89° |
| 2026-04-21 07:22 | 47.90956 | 14.56532 | 29970 ft | 472 kts | 89° |
| 2026-04-21 07:23 | 47.90893 | 14.61395 | 29670 ft | 468 kts | 89° |
| 2026-04-21 07:23 | 47.90829 | 14.66240 | 29380 ft | 465 kts | 89° |
| 2026-04-21 07:23 | 47.90764 | 14.71030 | 29097 ft | 462 kts | 89° |
| 2026-04-21 07:23 | 47.90696 | 14.75797 | 28812 ft | 459 kts | 89° |
| 2026-04-21 07:24 | 47.90627 | 14.80544 | 28535 ft | 456 kts | 89° |
| 2026-04-21 07:24 | 47.90557 | 14.85253 | 28255 ft | 453 kts | 90° |
| 2026-04-21 07:24 | 47.90485 | 14.89942 | 27980 ft | 450 kts | 90° |
| 2026-04-21 07:24 | 47.90413 | 14.94521 | 27542 ft | 445 kts | 90° |
| 2026-04-21 07:25 | 47.90339 | 14.99132 | 26901 ft | 445 kts | 90° |
| 2026-04-21 07:25 | 47.90263 | 15.03744 | 26247 ft | 445 kts | 90° |
| 2026-04-21 07:25 | 47.90185 | 15.08352 | 25611 ft | 444 kts | 90° |
| 2026-04-21 07:25 | 47.90106 | 15.12952 | 24969 ft | 443 kts | 90° |
| 2026-04-21 07:26 | 47.90024 | 15.17551 | 24398 ft | 441 kts | 90° |
| 2026-04-21 07:26 | 47.89942 | 15.22090 | 23818 ft | 439 kts | 90° |
| 2026-04-21 07:26 | 47.89857 | 15.26615 | 23432 ft | 430 kts | 90° |
| 2026-04-21 07:26 | 47.89773 | 15.31032 | 22854 ft | 426 kts | 90° |
| 2026-04-21 07:27 | 47.89532 | 15.35436 | 22204 ft | 425 kts | 98° |
| 2026-04-21 07:27 | 47.89028 | 15.39734 | 21707 ft | 419 kts | 98° |
| 2026-04-21 07:27 | 47.88486 | 15.43990 | 21011 ft | 418 kts | 99° |
| 2026-04-21 07:27 | 47.87894 | 15.48239 | 20445 ft | 416 kts | 99° |
| 2026-04-21 07:28 | 47.87285 | 15.52403 | 20028 ft | 408 kts | 100° |
| 2026-04-21 07:28 | 47.86681 | 15.56467 | 19399 ft | 407 kts | 100° |
| 2026-04-21 07:28 | 47.86067 | 15.60585 | 18808 ft | 405 kts | 100° |
| 2026-04-21 07:28 | 47.85463 | 15.64640 | 18434 ft | 396 kts | 100° |
| 2026-04-21 07:29 | 47.84870 | 15.68632 | 17756 ft | 394 kts | 99° |
| 2026-04-21 07:29 | 47.84284 | 15.72593 | 16819 ft | 390 kts | 100° |
| 2026-04-21 07:29 | 47.83706 | 15.76505 | 16000 ft | 385 kts | 100° |
| 2026-04-21 07:29 | 47.83137 | 15.80344 | 15276 ft | 376 kts | 100° |
| 2026-04-21 07:30 | 47.82578 | 15.84109 | 14595 ft | 368 kts | 100° |
| 2026-04-21 07:30 | 47.82031 | 15.87786 | 14055 ft | 362 kts | 101° |
| 2026-04-21 07:30 | 47.81487 | 15.91443 | 13458 ft | 359 kts | 101° |
| 2026-04-21 07:30 | 47.80948 | 15.95056 | 12948 ft | 355 kts | 100° |
| 2026-04-21 07:31 | 47.80415 | 15.98617 | 12415 ft | 351 kts | 101° |
| 2026-04-21 07:31 | 47.79887 | 16.02141 | 11918 ft | 347 kts | 100° |
| 2026-04-21 07:31 | 47.79364 | 16.05615 | 11599 ft | 338 kts | 100° |
| 2026-04-21 07:31 | 47.78867 | 16.08901 | 11539 ft | 320 kts | 100° |
| 2026-04-21 07:32 | 47.78393 | 16.12020 | 11436 ft | 300 kts | 100° |
| 2026-04-21 07:32 | 47.77945 | 16.14962 | 11205 ft | 287 kts | 100° |
| 2026-04-21 07:32 | 47.77507 | 16.17851 | 10762 ft | 286 kts | 99° |
| 2026-04-21 07:32 | 47.77133 | 16.20750 | 10479 ft | 282 kts | 91° |
| 2026-04-21 07:33 | 47.77218 | 16.23634 | 10020 ft | 281 kts | 74° |
| 2026-04-21 07:33 | 47.77895 | 16.26329 | 9583 ft | 275 kts | 60° |
| 2026-04-21 07:33 | 47.78780 | 16.28850 | 9095 ft | 276 kts | 57° |
| 2026-04-21 07:33 | 47.79703 | 16.31318 | 8849 ft | 268 kts | 56° |
| 2026-04-21 07:34 | 47.80599 | 16.33686 | 8743 ft | 257 kts | 56° |
| 2026-04-21 07:34 | 47.81461 | 16.35961 | 8614 ft | 247 kts | 56° |
| 2026-04-21 07:34 | 47.82289 | 16.38143 | 8459 ft | 238 kts | 55° |
| 2026-04-21 07:34 | 47.83060 | 16.40309 | 8217 ft | 236 kts | 66° |
| 2026-04-21 07:35 | 47.83242 | 16.42743 | 8030 ft | 241 kts | 91° |
| 2026-04-21 07:35 | 47.83008 | 16.45157 | 7905 ft | 229 kts | 96° |
| 2026-04-21 07:35 | 47.82714 | 16.47455 | 7634 ft | 223 kts | 97° |
| 2026-04-21 07:35 | 47.82424 | 16.49681 | 7332 ft | 221 kts | 97° |
| 2026-04-21 07:36 | 47.82134 | 16.51893 | 7012 ft | 217 kts | 97° |
| 2026-04-21 07:36 | 47.81849 | 16.54100 | 6603 ft | 218 kts | 97° |
| 2026-04-21 07:36 | 47.81575 | 16.56340 | 6162 ft | 220 kts | 96° |
| 2026-04-21 07:36 | 47.81337 | 16.58595 | 5717 ft | 222 kts | 95° |
| 2026-04-21 07:37 | 47.81223 | 16.60878 | 5281 ft | 220 kts | 84° |
| 2026-04-21 07:37 | 47.81354 | 16.63087 | 5104 ft | 207 kts | 75° |
| 2026-04-21 07:37 | 47.81627 | 16.65109 | 4965 ft | 193 kts | 72° |
| 2026-04-21 07:37 | 47.81895 | 16.66994 | 4780 ft | 180 kts | 72° |
| 2026-04-21 07:38 | 47.82236 | 16.68696 | 4577 ft | 162 kts | 45° |
| 2026-04-21 07:38 | 47.83132 | 16.69416 | 4213 ft | 145 kts | 358° |
| 2026-04-21 07:38 | 47.84126 | 16.69361 | 3931 ft | 142 kts | 347° |
| 2026-04-21 07:38 | 47.85086 | 16.69091 | 3666 ft | 139 kts | 342° |
| 2026-04-21 07:39 | 47.86018 | 16.68729 | 3381 ft | 138 kts | 341° |
| 2026-04-21 07:39 | 47.86931 | 16.68341 | 3066 ft | 138 kts | 342° |
| 2026-04-21 07:39 | 47.87825 | 16.67966 | 2994 ft | 131 kts | 342° |
| 2026-04-21 07:39 | 47.88707 | 16.67601 | 2999 ft | 132 kts | 342° |
| 2026-04-21 07:40 | 47.89592 | 16.67237 | 2988 ft | 131 kts | 343° |
| 2026-04-21 07:40 | 47.90467 | 16.66877 | 2985 ft | 131 kts | 343° |
| 2026-04-21 07:40 | 47.91347 | 16.66513 | 2988 ft | 132 kts | 342° |
| 2026-04-21 07:40 | 47.92234 | 16.66143 | 2988 ft | 132 kts | 342° |
| 2026-04-21 07:41 | 47.93116 | 16.65773 | 2989 ft | 131 kts | 341° |
| 2026-04-21 07:41 | 47.93987 | 16.65406 | 2994 ft | 130 kts | 341° |
| 2026-04-21 07:41 | 47.94855 | 16.65039 | 2999 ft | 129 kts | 341° |
| 2026-04-21 07:41 | 47.95725 | 16.64672 | 2998 ft | 131 kts | 341° |
| 2026-04-21 07:42 | 47.96590 | 16.64308 | 3020 ft | 126 kts | 341° |
| 2026-04-21 07:42 | 47.97424 | 16.63957 | 3005 ft | 124 kts | 342° |
| 2026-04-21 07:42 | 47.98257 | 16.63606 | 2875 ft | 125 kts | 342° |
| 2026-04-21 07:42 | 47.99092 | 16.63254 | 2680 ft | 124 kts | 342° |
| 2026-04-21 07:43 | 47.99922 | 16.62904 | 2499 ft | 124 kts | 342° |
| 2026-04-21 07:43 | 48.00757 | 16.62553 | 2320 ft | 124 kts | 342° |
| 2026-04-21 07:43 | 48.01586 | 16.62203 | 2147 ft | 124 kts | 342° |
| 2026-04-21 07:43 | 48.02416 | 16.61853 | 1964 ft | 123 kts | 342° |
| 2026-04-21 07:44 | 48.03237 | 16.61507 | 1805 ft | 122 kts | 342° |
| 2026-04-21 07:44 | 48.04059 | 16.61160 | 1632 ft | 122 kts | 342° |
| 2026-04-21 07:44 | 48.04867 | 16.60819 | 1456 ft | 122 kts | 341° |
| 2026-04-21 07:44 | 48.05688 | 16.60472 | 1284 ft | 122 kts | 341° |
| 2026-04-21 07:45 | 48.06507 | 16.60126 | 1102 ft | 122 kts | 341° |
| 2026-04-21 07:45 | 48.07324 | 16.59781 | 941 ft | 122 kts | 341° |
| 2026-04-21 07:45 | 48.08150 | 16.59432 | 803 ft | 135 kts | 341° |
| 2026-04-21 07:45 | 48.09061 | 16.59054 | 645 ft | 130 kts | 343° |
| 2026-04-21 07:46 | 48.09870 | 16.58712 | 631 ft | 108 kts | 342° |
| 2026-04-21 07:46 | 48.10264 | 16.58539 | 617 ft | 26 kts | 342° |
| 2026-04-21 07:46 | 48.10407 | 16.58393 | 618 ft | 22 kts | 304° |
| 2026-04-21 07:46 | 48.10434 | 16.58329 | 619 ft | 0 kts | 302° |
| 2026-04-21 07:48 | 48.10434 | 16.58328 | 619 ft | 0 kts | 302° |
| 2026-04-21 07:48 | 48.10436 | 16.58323 | 618 ft | 7 kts | 302° |
| 2026-04-21 07:49 | 48.10478 | 16.58217 | 619 ft | 11 kts | 303° |
| 2026-04-21 07:49 | 48.10537 | 16.58154 | 619 ft | 11 kts | 338° |
| 2026-04-21 07:49 | 48.10612 | 16.58113 | 621 ft | 12 kts | 344° |
| 2026-04-21 07:49 | 48.10697 | 16.58080 | 627 ft | 13 kts | 346° |
| 2026-04-21 07:50 | 48.10785 | 16.58045 | 625 ft | 14 kts | 345° |
| 2026-04-21 07:50 | 48.10887 | 16.58002 | 626 ft | 16 kts | 342° |
| 2026-04-21 07:50 | 48.10970 | 16.57914 | 620 ft | 14 kts | 313° |
| 2026-04-21 07:50 | 48.11037 | 16.57815 | 620 ft | 14 kts | 321° |
| 2026-04-21 07:51 | 48.11126 | 16.57752 | 624 ft | 15 kts | 332° |
| 2026-04-21 07:51 | 48.11184 | 16.57635 | 622 ft | 14 kts | 294° |
| 2026-04-21 07:51 | 48.11228 | 16.57502 | 628 ft | 14 kts | 296° |
| 2026-04-21 07:51 | 48.11256 | 16.57415 | 627 ft | 14 kts | 296° |
| 2026-04-21 07:52 | 48.11322 | 16.57345 | 626 ft | 12 kts | 12° |
| 2026-04-21 07:52 | 48.11411 | 16.57378 | 617 ft | 15 kts | 346° |
| 2026-04-21 07:52 | 48.11472 | 16.57251 | 622 ft | 16 kts | 296° |
| 2026-04-21 07:52 | 48.11519 | 16.57094 | 617 ft | 18 kts | 294° |
| 2026-04-21 07:53 | 48.11562 | 16.56968 | 622 ft | 0 kts | 298° |
| 2026-04-21 07:53 | 48.11563 | 16.56966 | 621 ft | 1 kts | 298° |
| 2026-04-21 07:53 | 48.11567 | 16.56955 | 617 ft | 2 kts | 298° |
| 2026-04-21 07:54 | 48.11574 | 16.56935 | 624 ft | 3 kts | 298° |
| 2026-04-21 07:54 | 48.11588 | 16.56918 | 623 ft | 3 kts | 341° |
| 2026-04-21 07:54 | 48.11617 | 16.56927 | 610 ft | 6 kts | 22° |
| 2026-04-21 07:54 | 48.11651 | 16.56949 | 609 ft | 0 kts | 24° |